sensor_id;sensor_type;location;lat;lon;timestamp;pressure;altitude;pressure_sealevel;temperature;humidity
18819;BME280;9537;45.594;9.294;2023-05-12T00:00:37;99264.84;;;15.07;89.70
18819;BME280;9537;45.594;9.294;2023-05-12T00:01:38;99267.72;;;15.05;89.38
18819;BME280;9537;45.594;9.294;2023-05-12T00:02:41;99262.41;;;15.05;89.29
18819;BME280;9537;45.594;9.294;2023-05-12T00:03:42;99255.66;;;15.03;89.48
18819;BME280;9537;45.594;9.294;2023-05-12T00:04:45;99261.81;;;15.03;89.94
18819;BME280;9537;45.594;9.294;2023-05-12T00:05:46;99263.03;;;15.01;89.83
18819;BME280;9537;45.594;9.294;2023-05-12T00:06:48;99267.13;;;15.03;89.64
18819;BME280;9537;45.594;9.294;2023-05-12T00:07:50;99262.00;;;15.02;89.54
18819;BME280;9537;45.594;9.294;2023-05-12T00:08:52;99260.75;;;15.04;89.47
18819;BME280;9537;45.594;9.294;2023-05-12T00:09:54;99266.06;;;15.04;89.37
18819;BME280;9537;45.594;9.294;2023-05-12T00:10:56;99266.88;;;15.05;89.15
18819;BME280;9537;45.594;9.294;2023-05-12T00:11:57;99271.63;;;15.03;89.34
18819;BME280;9537;45.594;9.294;2023-05-12T00:12:59;99265.06;;;15.05;89.29
18819;BME280;9537;45.594;9.294;2023-05-12T00:14:00;99271.63;;;15.03;88.94
18819;BME280;9537;45.594;9.294;2023-05-12T00:15:02;99263.66;;;15.03;89.00
18819;BME280;9537;45.594;9.294;2023-05-12T00:16:04;99263.84;;;15.01;89.01
18819;BME280;9537;45.594;9.294;2023-05-12T00:17:06;99262.84;;;15.02;89.29
18819;BME280;9537;45.594;9.294;2023-05-12T00:18:08;99261.00;;;15.03;89.65
18819;BME280;9537;45.594;9.294;2023-05-12T00:19:10;99265.06;;;15.05;89.51
18819;BME280;9537;45.594;9.294;2023-05-12T00:20:11;99265.88;;;15.06;89.64
18819;BME280;9537;45.594;9.294;2023-05-12T00:21:14;99266.06;;;15.04;89.53
18819;BME280;9537;45.594;9.294;2023-05-12T00:22:15;99256.47;;;15.03;89.46
18819;BME280;9537;45.594;9.294;2023-05-12T00:23:19;99262.84;;;15.02;89.39
18819;BME280;9537;45.594;9.294;2023-05-12T00:24:20;99267.31;;;15.02;89.67
18819;BME280;9537;45.594;9.294;2023-05-12T00:25:22;99261.00;;;15.03;88.96
18819;BME280;9537;45.594;9.294;2023-05-12T00:26:23;99252.78;;;15.04;88.91
18819;BME280;9537;45.594;9.294;2023-05-12T00:27:25;99267.31;;;15.02;88.75
18819;BME280;9537;45.594;9.294;2023-05-12T00:28:26;99261.19;;;15.01;88.76
18819;BME280;9537;45.594;9.294;2023-05-12T00:29:28;99261.59;;;14.98;89.09
18819;BME280;9537;45.594;9.294;2023-05-12T00:30:29;99257.31;;;14.97;89.11
18819;BME280;9537;45.594;9.294;2023-05-12T00:31:31;99254.06;;;14.95;89.57
18819;BME280;9537;45.594;9.294;2023-05-12T00:32:33;99259.38;;;14.95;89.65
18819;BME280;9537;45.594;9.294;2023-05-12T00:33:35;99249.53;;;14.96;89.68
18819;BME280;9537;45.594;9.294;2023-05-12T00:34:36;99256.28;;;14.98;89.54
18819;BME280;9537;45.594;9.294;2023-05-12T00:35:38;99253.00;;;14.96;89.89
18819;BME280;9537;45.594;9.294;2023-05-12T00:36:39;99254.66;;;14.97;89.85
18819;BME280;9537;45.594;9.294;2023-05-12T00:37:41;99251.19;;;14.97;89.67
18819;BME280;9537;45.594;9.294;2023-05-12T00:38:44;99253.25;;;14.95;89.50
18819;BME280;9537;45.594;9.294;2023-05-12T00:39:46;99253.25;;;14.95;89.54
18819;BME280;9537;45.594;9.294;2023-05-12T00:40:47;99250.34;;;14.96;89.09
18819;BME280;9537;45.594;9.294;2023-05-12T00:41:54;99251.19;;;14.97;89.54
18819;BME280;9537;45.594;9.294;2023-05-12T00:42:55;99251.78;;;14.99;89.71
18819;BME280;9537;45.594;9.294;2023-05-12T00:43:57;99251.78;;;14.99;90.01
18819;BME280;9537;45.594;9.294;2023-05-12T00:44:58;99251.63;;;14.94;90.33
18819;BME280;9537;45.594;9.294;2023-05-12T00:46:01;99248.34;;;14.92;90.72
18819;BME280;9537;45.594;9.294;2023-05-12T00:47:05;99245.47;;;14.93;90.23
18819;BME280;9537;45.594;9.294;2023-05-12T00:48:07;99250.78;;;14.93;90.77
18819;BME280;9537;45.594;9.294;2023-05-12T00:49:08;99247.31;;;14.93;90.95
18819;BME280;9537;45.594;9.294;2023-05-12T00:50:10;99248.53;;;14.90;91.23
18819;BME280;9537;45.594;9.294;2023-05-12T00:51:12;99252.25;;;14.89;91.18
18819;BME280;9537;45.594;9.294;2023-05-12T00:52:14;99249.59;;;14.89;91.38
18819;BME280;9537;45.594;9.294;2023-05-12T00:53:16;99246.69;;;14.91;91.05
18819;BME280;9537;45.594;9.294;2023-05-12T00:54:20;99243.88;;;14.85;91.09
18819;BME280;9537;45.594;9.294;2023-05-12T00:55:21;99247.34;;;14.86;91.15
18819;BME280;9537;45.594;9.294;2023-05-12T00:56:24;99247.53;;;14.84;91.08
18819;BME280;9537;45.594;9.294;2023-05-12T00:57:25;99239.78;;;14.83;91.32
18819;BME280;9537;45.594;9.294;2023-05-12T00:58:27;99244.69;;;14.86;91.34
18819;BME280;9537;45.594;9.294;2023-05-12T00:59:28;99239.78;;;14.83;91.19
18819;BME280;9537;45.594;9.294;2023-05-12T01:00:31;99236.91;;;14.84;91.62
18819;BME280;9537;45.594;9.294;2023-05-12T01:01:33;99245.69;;;14.85;91.08
18819;BME280;9537;45.594;9.294;2023-05-12T01:02:35;99241.41;;;14.84;91.22
18819;BME280;9537;45.594;9.294;2023-05-12T01:03:37;99238.38;;;14.80;91.72
18819;BME280;9537;45.594;9.294;2023-05-12T01:04:39;99236.75;;;14.79;92.07
18819;BME280;9537;45.594;9.294;2023-05-12T01:05:46;99242.06;;;14.79;92.36
18819;BME280;9537;45.594;9.294;2023-05-12T01:06:54;99245.72;;;14.78;91.95
18819;BME280;9537;45.594;9.294;2023-05-12T01:07:57;99239.78;;;14.76;92.08
18819;BME280;9537;45.594;9.294;2023-05-12T01:09:01;99246.75;;;14.77;91.99
18819;BME280;9537;45.594;9.294;2023-05-12T01:10:14;99238.41;;;14.74;92.64
18819;BME280;9537;45.594;9.294;2023-05-12T01:11:17;99235.75;;;14.74;92.46
18819;BME280;9537;45.594;9.294;2023-05-12T01:12:18;99241.88;;;14.74;92.63
18819;BME280;9537;45.594;9.294;2023-05-12T01:13:21;99238.78;;;14.71;92.92
18819;BME280;9537;45.594;9.294;2023-05-12T01:14:22;99235.13;;;14.72;92.94
18819;BME280;9537;45.594;9.294;2023-05-12T01:15:25;99233.47;;;14.71;92.73
18819;BME280;9537;45.594;9.294;2023-05-12T01:16:31;99236.97;;;14.71;92.62
18819;BME280;9537;45.594;9.294;2023-05-12T01:17:36;99234.31;;;14.71;92.95
18819;BME280;9537;45.594;9.294;2023-05-12T01:18:39;99232.47;;;14.72;93.04
18819;BME280;9537;45.594;9.294;2023-05-12T01:19:51;99238.59;;;14.72;93.31
18819;BME280;9537;45.594;9.294;2023-05-12T01:20:54;99238.59;;;14.72;93.59
18819;BME280;9537;45.594;9.294;2023-05-12T01:21:57;99232.66;;;14.70;93.16
18819;BME280;9537;45.594;9.294;2023-05-12T01:22:59;99236.13;;;14.71;92.80
18819;BME280;9537;45.594;9.294;2023-05-12T01:24:06;99232.47;;;14.72;92.91
18819;BME280;9537;45.594;9.294;2023-05-12T01:25:10;99236.97;;;14.71;92.66
18819;BME280;9537;45.594;9.294;2023-05-12T01:26:16;99231.66;;;14.71;92.61
18819;BME280;9537;45.594;9.294;2023-05-12T01:27:19;99228.16;;;14.71;92.61
18819;BME280;9537;45.594;9.294;2023-05-12T01:28:21;99230.00;;;14.70;92.55
18819;BME280;9537;45.594;9.294;2023-05-12T01:29:23;99229.81;;;14.72;92.26
18819;BME280;9537;45.594;9.294;2023-05-12T01:30:27;99224.28;;;14.73;92.34
18819;BME280;9537;45.594;9.294;2023-05-12T01:31:29;99228.78;;;14.73;92.43
18819;BME280;9537;45.594;9.294;2023-05-12T01:32:31;99230.63;;;14.72;92.88
18819;BME280;9537;45.594;9.294;2023-05-12T01:33:33;99227.16;;;14.72;93.25
18819;BME280;9537;45.594;9.294;2023-05-12T01:34:36;99229.81;;;14.72;93.02
18819;BME280;9537;45.594;9.294;2023-05-12T01:35:37;99223.84;;;14.76;92.85
18819;BME280;9537;45.594;9.294;2023-05-12T01:36:39;99220.19;;;14.77;92.16
18819;BME280;9537;45.594;9.294;2023-05-12T01:37:40;99220.19;;;14.77;92.07
18819;BME280;9537;45.594;9.294;2023-05-12T01:38:42;99222.66;;;14.72;92.65
18819;BME280;9537;45.594;9.294;2023-05-12T01:39:44;99220.00;;;14.72;92.59
18819;BME280;9537;45.594;9.294;2023-05-12T01:40:46;99225.13;;;14.74;92.63
18819;BME280;9537;45.594;9.294;2023-05-12T01:41:48;99221.41;;;14.75;92.64
18819;BME280;9537;45.594;9.294;2023-05-12T01:42:50;99227.78;;;14.74;92.31
18819;BME280;9537;45.594;9.294;2023-05-12T01:43:51;99216.91;;;14.75;92.22
18819;BME280;9537;45.594;9.294;2023-05-12T01:44:53;99225.50;;;14.77;92.26
18819;BME280;9537;45.594;9.294;2023-05-12T01:45:54;99223.84;;;14.76;92.71
18819;BME280;9537;45.594;9.294;2023-05-12T01:46:56;99227.53;;;14.75;92.75
18819;BME280;9537;45.594;9.294;2023-05-12T01:47:57;99223.25;;;14.74;92.81
18819;BME280;9537;45.594;9.294;2023-05-12T01:48:59;99222.44;;;14.74;93.36
18819;BME280;9537;45.594;9.294;2023-05-12T01:50:01;99218.94;;;14.73;93.72
18819;BME280;9537;45.594;9.294;2023-05-12T01:51:06;99223.25;;;14.74;94.04
18819;BME280;9537;45.594;9.294;2023-05-12T01:52:07;99222.03;;;14.77;93.50
18819;BME280;9537;45.594;9.294;2023-05-12T01:53:09;99225.13;;;14.74;93.12
18819;BME280;9537;45.594;9.294;2023-05-12T01:54:10;99228.56;;;14.74;93.21
18819;BME280;9537;45.594;9.294;2023-05-12T01:55:12;99229.59;;;14.73;92.85
18819;BME280;9537;45.594;9.294;2023-05-12T01:56:13;99222.22;;;14.75;92.93
18819;BME280;9537;45.594;9.294;2023-05-12T01:57:17;99227.53;;;14.75;92.55
18819;BME280;9537;45.594;9.294;2023-05-12T01:58:18;99226.50;;;14.76;92.90
18819;BME280;9537;45.594;9.294;2023-05-12T01:59:20;99232.06;;;14.75;93.53
18819;BME280;9537;45.594;9.294;2023-05-12T02:00:22;99227.34;;;14.77;93.65
18819;BME280;9537;45.594;9.294;2023-05-12T02:01:24;99231.63;;;14.78;93.17
18819;BME280;9537;45.594;9.294;2023-05-12T02:02:28;99227.53;;;14.75;93.59
18819;BME280;9537;45.594;9.294;2023-05-12T02:03:31;99223.47;;;14.73;93.44
18819;BME280;9537;45.594;9.294;2023-05-12T02:04:32;99235.94;;;14.72;93.76
18819;BME280;9537;45.594;9.294;2023-05-12T02:05:34;99226.34;;;14.71;93.70
18819;BME280;9537;45.594;9.294;2023-05-12T02:06:35;99236.34;;;14.69;94.01
18819;BME280;9537;45.594;9.294;2023-05-12T02:07:37;99227.34;;;14.70;94.16
18819;BME280;9537;45.594;9.294;2023-05-12T02:08:38;99239.84;;;14.70;94.43
18819;BME280;9537;45.594;9.294;2023-05-12T02:09:40;99227.34;;;14.70;93.73
18819;BME280;9537;45.594;9.294;2023-05-12T02:10:41;99232.09;;;14.68;94.14
18819;BME280;9537;45.594;9.294;2023-05-12T02:11:43;99221.44;;;14.68;93.97
18819;BME280;9537;45.594;9.294;2023-05-12T02:12:46;99230.00;;;14.70;94.13
18819;BME280;9537;45.594;9.294;2023-05-12T02:13:48;99225.72;;;14.69;94.40
18819;BME280;9537;45.594;9.294;2023-05-12T02:14:49;99221.22;;;14.70;94.24
18819;BME280;9537;45.594;9.294;2023-05-12T02:15:51;99221.44;;;14.68;94.55
18819;BME280;9537;45.594;9.294;2023-05-12T02:16:52;99226.75;;;14.68;94.60
18819;BME280;9537;45.594;9.294;2023-05-12T02:17:55;99219.41;;;14.63;95.02
18819;BME280;9537;45.594;9.294;2023-05-12T02:18:59;99217.56;;;14.64;94.85
18819;BME280;9537;45.594;9.294;2023-05-12T02:20:01;99220.03;;;14.66;94.74
18819;BME280;9537;45.594;9.294;2023-05-12T02:21:02;99223.25;;;14.68;94.59
18819;BME280;9537;45.594;9.294;2023-05-12T02:22:04;99216.31;;;14.67;94.67
18819;BME280;9537;45.594;9.294;2023-05-12T02:23:05;99215.72;;;14.64;94.64
18819;BME280;9537;45.594;9.294;2023-05-12T02:24:08;99217.78;;;14.62;94.99
18819;BME280;9537;45.594;9.294;2023-05-12T02:25:09;99218.78;;;14.61;94.98
18819;BME280;9537;45.594;9.294;2023-05-12T02:26:11;99217.78;;;14.62;94.88
18819;BME280;9537;45.594;9.294;2023-05-12T02:27:12;99214.09;;;14.63;95.40
18819;BME280;9537;45.594;9.294;2023-05-12T02:28:16;99216.56;;;14.65;95.13
18819;BME280;9537;45.594;9.294;2023-05-12T02:29:17;99219.41;;;14.63;94.96
18819;BME280;9537;45.594;9.294;2023-05-12T02:30:19;99218.59;;;14.63;95.06
18819;BME280;9537;45.594;9.294;2023-05-12T02:31:20;99218.59;;;14.63;94.94
18819;BME280;9537;45.594;9.294;2023-05-12T02:32:22;99221.25;;;14.63;95.10
18819;BME280;9537;45.594;9.294;2023-05-12T02:33:24;99219.41;;;14.63;95.18
18819;BME280;9537;45.594;9.294;2023-05-12T02:34:26;99222.88;;;14.64;95.00
18819;BME280;9537;45.594;9.294;2023-05-12T02:35:27;99227.19;;;14.65;94.72
18819;BME280;9537;45.594;9.294;2023-05-12T02:36:29;99218.38;;;14.64;94.80
18819;BME280;9537;45.594;9.294;2023-05-12T02:37:30;99227.78;;;14.67;95.00
18819;BME280;9537;45.594;9.294;2023-05-12T02:38:32;99222.06;;;14.63;94.91
18819;BME280;9537;45.594;9.294;2023-05-12T02:39:34;99219.41;;;14.63;95.21
18819;BME280;9537;45.594;9.294;2023-05-12T02:40:36;99222.06;;;14.63;95.22
18819;BME280;9537;45.594;9.294;2023-05-12T02:41:37;99226.34;;;14.64;95.60
18819;BME280;9537;45.594;9.294;2023-05-12T02:42:39;99223.91;;;14.63;95.55
18819;BME280;9537;45.594;9.294;2023-05-12T02:43:42;99231.66;;;14.64;95.53
18819;BME280;9537;45.594;9.294;2023-05-12T02:44:44;99218.59;;;14.63;95.43
18819;BME280;9537;45.594;9.294;2023-05-12T02:45:45;99222.69;;;14.66;95.38
18819;BME280;9537;45.594;9.294;2023-05-12T02:46:47;99229.63;;;14.67;95.29
18819;BME280;9537;45.594;9.294;2023-05-12T02:47:49;99225.13;;;14.67;95.04
18819;BME280;9537;45.594;9.294;2023-05-12T02:48:51;99228.00;;;14.66;94.57
18819;BME280;9537;45.594;9.294;2023-05-12T02:49:52;99224.31;;;14.67;94.45
18819;BME280;9537;45.594;9.294;2023-05-12T02:50:56;99224.53;;;14.65;94.31
18819;BME280;9537;45.594;9.294;2023-05-12T02:51:57;99221.66;;;14.67;94.13
18819;BME280;9537;45.594;9.294;2023-05-12T02:52:59;99225.13;;;14.67;93.85
18819;BME280;9537;45.594;9.294;2023-05-12T02:54:00;99225.91;;;14.68;93.69
18819;BME280;9537;45.594;9.294;2023-05-12T02:55:05;99227.56;;;14.69;93.14
18819;BME280;9537;45.594;9.294;2023-05-12T02:56:06;99219.78;;;14.67;93.31
18819;BME280;9537;45.594;9.294;2023-05-12T02:57:08;99224.09;;;14.68;93.00
18819;BME280;9537;45.594;9.294;2023-05-12T02:58:11;99218.78;;;14.68;92.99
18819;BME280;9537;45.594;9.294;2023-05-12T02:59:14;99223.25;;;14.68;93.10
18819;BME280;9537;45.594;9.294;2023-05-12T03:00:15;99217.75;;;14.69;92.94
18819;BME280;9537;45.594;9.294;2023-05-12T03:01:18;99222.03;;;14.70;92.75
18819;BME280;9537;45.594;9.294;2023-05-12T03:02:19;99220.41;;;14.69;92.52
18819;BME280;9537;45.594;9.294;2023-05-12T03:03:21;99221.03;;;14.71;92.44
18819;BME280;9537;45.594;9.294;2023-05-12T03:04:22;99226.34;;;14.71;92.63
18819;BME280;9537;45.594;9.294;2023-05-12T03:05:24;99222.84;;;14.71;92.96
18819;BME280;9537;45.594;9.294;2023-05-12T03:06:26;99219.38;;;14.70;92.61
18819;BME280;9537;45.594;9.294;2023-05-12T03:07:28;99220.19;;;14.71;92.68
18819;BME280;9537;45.594;9.294;2023-05-12T03:08:29;99221.66;;;14.67;92.58
18819;BME280;9537;45.594;9.294;2023-05-12T03:09:31;99223.88;;;14.70;92.86
18819;BME280;9537;45.594;9.294;2023-05-12T03:10:32;99217.34;;;14.72;92.29
18819;BME280;9537;45.594;9.294;2023-05-12T03:11:37;99220.81;;;14.73;92.71
18819;BME280;9537;45.594;9.294;2023-05-12T03:12:38;99217.94;;;14.74;92.67
18819;BME280;9537;45.594;9.294;2023-05-12T03:13:40;99220.59;;;14.74;92.83
18819;BME280;9537;45.594;9.294;2023-05-12T03:14:43;99223.25;;;14.74;93.02
18819;BME280;9537;45.594;9.294;2023-05-12T03:15:45;99222.44;;;14.74;93.31
18819;BME280;9537;45.594;9.294;2023-05-12T03:16:46;99216.09;;;14.75;93.35
18819;BME280;9537;45.594;9.294;2023-05-12T03:17:48;99222.44;;;14.74;93.82
18819;BME280;9537;45.594;9.294;2023-05-12T03:18:49;99217.72;;;14.76;93.11
18819;BME280;9537;45.594;9.294;2023-05-12T03:19:51;99215.28;;;14.74;92.94
18819;BME280;9537;45.594;9.294;2023-05-12T03:20:54;99213.44;;;14.75;92.56
18819;BME280;9537;45.594;9.294;2023-05-12T03:21:56;99218.94;;;14.73;92.48
18819;BME280;9537;45.594;9.294;2023-05-12T03:22:57;99220.00;;;14.72;92.32
18819;BME280;9537;45.594;9.294;2023-05-12T03:23:59;99215.28;;;14.74;92.43
18819;BME280;9537;45.594;9.294;2023-05-12T03:25:00;99220.59;;;14.74;91.89
18819;BME280;9537;45.594;9.294;2023-05-12T03:26:04;99213.63;;;14.73;91.61
18819;BME280;9537;45.594;9.294;2023-05-12T03:27:06;99211.81;;;14.74;91.26
18819;BME280;9537;45.594;9.294;2023-05-12T03:28:07;99215.47;;;14.73;91.32
18819;BME280;9537;45.594;9.294;2023-05-12T03:29:09;99215.72;;;14.71;91.30
18819;BME280;9537;45.594;9.294;2023-05-12T03:30:14;99213.06;;;14.71;91.68
18819;BME280;9537;45.594;9.294;2023-05-12T03:31:16;99216.53;;;14.72;91.58
18819;BME280;9537;45.594;9.294;2023-05-12T03:32:17;99213.25;;;14.70;91.06
18819;BME280;9537;45.594;9.294;2023-05-12T03:33:19;99217.34;;;14.72;91.16
18819;BME280;9537;45.594;9.294;2023-05-12T03:34:20;99216.72;;;14.70;91.04
18819;BME280;9537;45.594;9.294;2023-05-12T03:35:22;99214.06;;;14.70;91.18
18819;BME280;9537;45.594;9.294;2023-05-12T03:36:24;99218.56;;;14.70;91.05
18819;BME280;9537;45.594;9.294;2023-05-12T03:37:26;99218.38;;;14.71;91.00
18819;BME280;9537;45.594;9.294;2023-05-12T03:38:27;99217.34;;;14.72;91.00
18819;BME280;9537;45.594;9.294;2023-05-12T03:39:29;99220.59;;;14.74;91.22
18819;BME280;9537;45.594;9.294;2023-05-12T03:40:30;99218.53;;;14.76;90.91
18819;BME280;9537;45.594;9.294;2023-05-12T03:41:33;99226.94;;;14.73;90.79
18819;BME280;9537;45.594;9.294;2023-05-12T03:42:34;99216.28;;;14.73;90.78
18819;BME280;9537;45.594;9.294;2023-05-12T03:43:36;99223.69;;;14.71;91.02
18819;BME280;9537;45.594;9.294;2023-05-12T03:44:37;99217.13;;;14.74;91.03
18819;BME280;9537;45.594;9.294;2023-05-12T03:45:40;99217.34;;;14.72;90.75
18819;BME280;9537;45.594;9.294;2023-05-12T03:46:41;99222.66;;;14.72;91.08
18819;BME280;9537;45.594;9.294;2023-05-12T03:47:43;99220.81;;;14.73;91.10
18819;BME280;9537;45.594;9.294;2023-05-12T03:48:45;99217.34;;;14.72;90.81
18819;BME280;9537;45.594;9.294;2023-05-12T03:49:47;99216.53;;;14.72;90.88
18819;BME280;9537;45.594;9.294;2023-05-12T03:50:48;99208.75;;;14.70;90.54
18819;BME280;9537;45.594;9.294;2023-05-12T03:51:50;99215.72;;;14.71;90.63
18819;BME280;9537;45.594;9.294;2023-05-12T03:52:51;99218.13;;;14.73;90.65
18819;BME280;9537;45.594;9.294;2023-05-12T03:53:55;99215.72;;;14.71;90.63
18819;BME280;9537;45.594;9.294;2023-05-12T03:54:56;99209.34;;;14.72;90.50
18819;BME280;9537;45.594;9.294;2023-05-12T03:56:03;99210.41;;;14.71;90.22
18819;BME280;9537;45.594;9.294;2023-05-12T03:57:04;99213.06;;;14.71;89.94
18819;BME280;9537;45.594;9.294;2023-05-12T03:58:07;99217.53;;;14.71;90.15
18819;BME280;9537;45.594;9.294;2023-05-12T03:59:08;99206.09;;;14.70;90.02
18819;BME280;9537;45.594;9.294;2023-05-12T04:00:12;99211.22;;;14.72;90.50
18819;BME280;9537;45.594;9.294;2023-05-12T04:01:15;99211.22;;;14.72;90.15
18819;BME280;9537;45.594;9.294;2023-05-12T04:02:17;99213.06;;;14.71;90.39
18819;BME280;9537;45.594;9.294;2023-05-12T04:03:19;99210.41;;;14.71;89.98
18819;BME280;9537;45.594;9.294;2023-05-12T04:04:21;99210.41;;;14.71;90.25
18819;BME280;9537;45.594;9.294;2023-05-12T04:05:22;99209.56;;;14.71;90.17
18819;BME280;9537;45.594;9.294;2023-05-12T04:06:24;99208.16;;;14.68;90.10
18819;BME280;9537;45.594;9.294;2023-05-12T04:07:25;99201.81;;;14.69;90.01
18819;BME280;9537;45.594;9.294;2023-05-12T04:08:27;99207.75;;;14.71;90.08
18819;BME280;9537;45.594;9.294;2023-05-12T04:09:29;99214.88;;;14.71;89.94
18819;BME280;9537;45.594;9.294;2023-05-12T04:10:31;99210.81;;;14.68;89.88
18819;BME280;9537;45.594;9.294;2023-05-12T04:11:32;99209.16;;;14.67;89.72
18819;BME280;9537;45.594;9.294;2023-05-12T04:12:34;99214.47;;;14.67;89.82
18819;BME280;9537;45.594;9.294;2023-05-12T04:13:35;99215.72;;;14.64;89.92
18819;BME280;9537;45.594;9.294;2023-05-12T04:14:38;99211.25;;;14.65;89.93
18819;BME280;9537;45.594;9.294;2023-05-12T04:15:39;99210.19;;;14.66;90.01
18819;BME280;9537;45.594;9.294;2023-05-12T04:16:43;99212.84;;;14.66;89.89
18819;BME280;9537;45.594;9.294;2023-05-12T04:17:45;99211.00;;;14.67;89.83
18819;BME280;9537;45.594;9.294;2023-05-12T04:18:47;99213.66;;;14.67;89.77
18819;BME280;9537;45.594;9.294;2023-05-12T04:19:49;99208.34;;;14.67;89.92
18819;BME280;9537;45.594;9.294;2023-05-12T04:20:52;99204.06;;;14.66;89.55
18819;BME280;9537;45.594;9.294;2023-05-12T04:21:53;99210.19;;;14.66;89.94
18819;BME280;9537;45.594;9.294;2023-05-12T04:22:55;99211.25;;;14.65;89.60
18819;BME280;9537;45.594;9.294;2023-05-12T04:23:57;99215.50;;;14.66;89.84
18819;BME280;9537;45.594;9.294;2023-05-12T04:24:59;99209.59;;;14.64;89.91
18819;BME280;9537;45.594;9.294;2023-05-12T04:26:02;99218.19;;;14.66;89.80
18819;BME280;9537;45.594;9.294;2023-05-12T04:27:04;99216.31;;;14.67;90.34
18819;BME280;9537;45.594;9.294;2023-05-12T04:28:07;99219.00;;;14.67;90.56
18819;BME280;9537;45.594;9.294;2023-05-12T04:29:08;99216.56;;;14.65;91.07
18819;BME280;9537;45.594;9.294;2023-05-12T04:30:10;99220.22;;;14.64;91.28
18819;BME280;9537;45.594;9.294;2023-05-12T04:31:11;99223.91;;;14.63;91.33
18819;BME280;9537;45.594;9.294;2023-05-12T04:32:15;99215.13;;;14.62;91.50
18819;BME280;9537;45.594;9.294;2023-05-12T04:33:16;99215.94;;;14.63;91.45
18819;BME280;9537;45.594;9.294;2023-05-12T04:34:18;99216.94;;;14.62;92.08
18819;BME280;9537;45.594;9.294;2023-05-12T04:35:19;99225.97;;;14.61;92.20
18819;BME280;9537;45.594;9.294;2023-05-12T04:36:22;99222.50;;;14.60;92.29
18819;BME280;9537;45.594;9.294;2023-05-12T04:37:23;99223.28;;;14.61;92.20
18819;BME280;9537;45.594;9.294;2023-05-12T04:38:25;99223.28;;;14.61;92.34
18819;BME280;9537;45.594;9.294;2023-05-12T04:39:27;99221.69;;;14.60;92.42
18819;BME280;9537;45.594;9.294;2023-05-12T04:40:29;99223.72;;;14.58;92.71
18819;BME280;9537;45.594;9.294;2023-05-12T04:41:31;99222.91;;;14.57;92.59
18819;BME280;9537;45.594;9.294;2023-05-12T04:42:33;99228.22;;;14.57;92.48
18819;BME280;9537;45.594;9.294;2023-05-12T04:43:34;99228.03;;;14.52;92.86
18819;BME280;9537;45.594;9.294;2023-05-12T04:44:36;99229.66;;;14.53;92.70
18819;BME280;9537;45.594;9.294;2023-05-12T04:45:37;99233.72;;;14.56;92.63
18819;BME280;9537;45.594;9.294;2023-05-12T04:46:39;99231.06;;;14.56;92.80
18819;BME280;9537;45.594;9.294;2023-05-12T04:47:41;99230.25;;;14.55;93.43
18819;BME280;9537;45.594;9.294;2023-05-12T04:48:44;99236.38;;;14.56;92.96
18819;BME280;9537;45.594;9.294;2023-05-12T04:49:45;99230.88;;;14.57;93.47
18819;BME280;9537;45.594;9.294;2023-05-12T04:50:48;99232.50;;;14.58;93.71
18819;BME280;9537;45.594;9.294;2023-05-12T04:51:49;99230.06;;;14.57;94.14
18819;BME280;9537;45.594;9.294;2023-05-12T04:52:51;99229.22;;;14.56;93.62
18819;BME280;9537;45.594;9.294;2023-05-12T04:53:52;99237.00;;;14.58;93.95
18819;BME280;9537;45.594;9.294;2023-05-12T04:54:54;99235.38;;;14.57;92.80
18819;BME280;9537;45.594;9.294;2023-05-12T04:55:55;99236.38;;;14.56;92.92
18819;BME280;9537;45.594;9.294;2023-05-12T04:56:57;99234.53;;;14.56;92.92
18819;BME280;9537;45.594;9.294;2023-05-12T04:57:58;99243.94;;;14.59;92.33
18819;BME280;9537;45.594;9.294;2023-05-12T04:59:00;99243.13;;;14.58;92.21
18819;BME280;9537;45.594;9.294;2023-05-12T05:00:01;99239.47;;;14.59;92.16
18819;BME280;9537;45.594;9.294;2023-05-12T05:01:05;99237.00;;;14.58;92.42
18819;BME280;9537;45.594;9.294;2023-05-12T05:02:07;99234.53;;;14.56;92.60
18819;BME280;9537;45.594;9.294;2023-05-12T05:03:10;99241.28;;;14.59;92.56
18819;BME280;9537;45.594;9.294;2023-05-12T05:04:12;99236.19;;;14.57;92.38
18819;BME280;9537;45.594;9.294;2023-05-12T05:05:13;99241.09;;;14.60;92.27
18819;BME280;9537;45.594;9.294;2023-05-12T05:06:15;99237.63;;;14.60;92.45
18819;BME280;9537;45.594;9.294;2023-05-12T05:07:16;99240.28;;;14.60;92.18
18819;BME280;9537;45.594;9.294;2023-05-12T05:08:19;99245.59;;;14.60;92.07
18819;BME280;9537;45.594;9.294;2023-05-12T05:09:20;99241.72;;;14.62;92.03
18819;BME280;9537;45.594;9.294;2023-05-12T05:10:23;99244.38;;;14.62;92.15
18819;BME280;9537;45.594;9.294;2023-05-12T05:11:24;99248.84;;;14.62;91.92
18819;BME280;9537;45.594;9.294;2023-05-12T05:12:26;99246.78;;;14.64;91.89
18819;BME280;9537;45.594;9.294;2023-05-12T05:13:27;99246.19;;;14.62;91.71
18819;BME280;9537;45.594;9.294;2023-05-12T05:14:29;99245.19;;;14.63;91.85
18819;BME280;9537;45.594;9.294;2023-05-12T05:15:31;99247.84;;;14.63;91.71
18819;BME280;9537;45.594;9.294;2023-05-12T05:16:33;99247.84;;;14.63;91.68
18819;BME280;9537;45.594;9.294;2023-05-12T05:17:35;99250.50;;;14.63;91.76
18819;BME280;9537;45.594;9.294;2023-05-12T05:18:39;99255.38;;;14.66;91.44
18819;BME280;9537;45.594;9.294;2023-05-12T05:19:42;99247.41;;;14.66;91.59
18819;BME280;9537;45.594;9.294;2023-05-12T05:20:44;99250.06;;;14.66;91.42
18819;BME280;9537;45.594;9.294;2023-05-12T05:21:46;99255.59;;;14.64;91.66
18819;BME280;9537;45.594;9.294;2023-05-12T05:22:48;99255.38;;;14.66;91.68
18819;BME280;9537;45.594;9.294;2023-05-12T05:23:49;99252.50;;;14.68;91.85
18819;BME280;9537;45.594;9.294;2023-05-12T05:24:52;99249.84;;;14.68;91.76
18819;BME280;9537;45.594;9.294;2023-05-12T05:25:53;99256.00;;;14.68;91.67
18819;BME280;9537;45.594;9.294;2023-05-12T05:29:14;99255.59;;;14.71;91.74
18819;BME280;9537;45.594;9.294;2023-05-12T05:30:17;99252.94;;;14.71;91.42
18819;BME280;9537;45.594;9.294;2023-05-12T05:31:18;99255.78;;;14.70;91.83
18819;BME280;9537;45.594;9.294;2023-05-12T05:32:20;99255.78;;;14.70;91.75
18819;BME280;9537;45.594;9.294;2023-05-12T05:33:21;99264.38;;;14.72;92.02
18819;BME280;9537;45.594;9.294;2023-05-12T05:34:25;99259.06;;;14.72;91.84
18819;BME280;9537;45.594;9.294;2023-05-12T05:35:26;99257.41;;;14.71;91.75